sensor_id;sensor_type;location;lat;lon;timestamp;pressure;altitude;pressure_sealevel;temperature;humidity
65019;BME280;66069;51.164;-114.452;2023-01-15T00:02:21;86567.66;;;17.11;42.82
65019;BME280;66069;51.164;-114.452;2023-01-15T00:04:50;86579.50;;;17.19;43.01
65019;BME280;66069;51.164;-114.452;2023-01-15T00:07:16;86571.03;;;17.11;42.99
65019;BME280;66069;51.164;-114.452;2023-01-15T00:09:43;86591.25;;;17.18;42.96
65019;BME280;66069;51.164;-114.452;2023-01-15T00:12:09;86559.22;;;17.03;43.49
65019;BME280;66069;51.164;-114.452;2023-01-15T00:14:36;86579.50;;;17.19;44.21
65019;BME280;66069;51.164;-114.452;2023-01-15T00:17:02;86588.38;;;17.25;44.27
65019;BME280;66069;51.164;-114.452;2023-01-15T00:19:28;86571.97;;;17.17;44.17
65019;BME280;66069;51.164;-114.452;2023-01-15T00:21:55;86566.19;;;17.10;44.19
65019;BME280;66069;51.164;-114.452;2023-01-15T00:24:22;86562.91;;;17.06;44.22
65019;BME280;66069;51.164;-114.452;2023-01-15T00:27:09;86588.91;;;17.20;44.22
65019;BME280;66069;51.164;-114.452;2023-01-15T00:29:54;86596.94;;;17.29;44.20
65019;BME280;66069;51.164;-114.452;2023-01-15T00:32:20;86569.88;;;17.12;44.21
65019;BME280;66069;51.164;-114.452;2023-01-15T00:34:47;86589.28;;;17.31;44.50
65019;BME280;66069;51.164;-114.452;2023-01-15T00:37:13;86570.31;;;17.11;45.33
65019;BME280;66069;51.164;-114.452;2023-01-15T00:39:39;86575.56;;;17.23;45.22
65019;BME280;66069;51.164;-114.452;2023-01-15T00:42:06;86594.47;;;17.35;45.19
65019;BME280;66069;51.164;-114.452;2023-01-15T00:44:32;86587.28;;;17.35;45.22
65019;BME280;66069;51.164;-114.452;2023-01-15T00:46:59;86577.22;;;17.30;45.15
65019;BME280;66069;51.164;-114.452;2023-01-15T00:49:26;86581.97;;;17.35;45.03
65019;BME280;66069;51.164;-114.452;2023-01-15T00:51:52;86581.25;;;17.35;45.07
65019;BME280;66069;51.164;-114.452;2023-01-15T00:54:18;86577.66;;;17.29;45.14
65019;BME280;66069;51.164;-114.452;2023-01-15T00:56:45;86561.69;;;17.19;44.97
65019;BME280;66069;51.164;-114.452;2023-01-15T00:59:11;86581.09;;;17.38;45.73
65019;BME280;66069;51.164;-114.452;2023-01-15T01:01:38;86557.44;;;17.22;45.74
65019;BME280;66069;51.164;-114.452;2023-01-15T01:04:05;86569.03;;;17.37;45.74
65019;BME280;66069;51.164;-114.452;2023-01-15T01:06:32;86574.94;;;17.41;45.75
65019;BME280;66069;51.164;-114.452;2023-01-15T01:08:58;86578.34;;;17.42;45.47
65019;BME280;66069;51.164;-114.452;2023-01-15T01:11:25;86579.06;;;17.42;45.71
65019;BME280;66069;51.164;-114.452;2023-01-15T01:13:53;86574.03;;;17.35;45.80
65019;BME280;66069;51.164;-114.452;2023-01-15T01:18:46;86581.72;;;17.42;45.57
65019;BME280;66069;51.164;-114.452;2023-01-15T01:21:13;86570.63;;;17.35;45.57
65019;BME280;66069;51.164;-114.452;2023-01-15T01:23:39;86574.22;;;17.41;45.63
65019;BME280;66069;51.164;-114.452;2023-01-15T01:26:05;86549.50;;;17.22;45.52
65019;BME280;66069;51.164;-114.452;2023-01-15T01:28:31;86585.13;;;17.43;45.66
65019;BME280;66069;51.164;-114.452;2023-01-15T01:30:58;86564.28;;;17.32;45.75
65019;BME280;66069;51.164;-114.452;2023-01-15T01:33:24;86540.09;;;17.21;45.84
65019;BME280;66069;51.164;-114.452;2023-01-15T01:35:50;86535.53;;;17.21;45.91
65019;BME280;66069;51.164;-114.452;2023-01-15T01:38:17;86552.22;;;17.31;45.63
65019;BME280;66069;51.164;-114.452;2023-01-15T01:40:43;86548.97;;;17.27;45.71
65019;BME280;66069;51.164;-114.452;2023-01-15T01:43:22;86578.22;;;17.45;45.85
65019;BME280;66069;51.164;-114.452;2023-01-15T01:45:48;86578.22;;;17.45;45.37
65019;BME280;66069;51.164;-114.452;2023-01-15T01:48:20;86552.66;;;17.30;45.85
65019;BME280;66069;51.164;-114.452;2023-01-15T01:50:50;86561.06;;;17.37;45.41
65019;BME280;66069;51.164;-114.452;2023-01-15T01:53:21;86563.97;;;17.30;45.59
65019;BME280;66069;51.164;-114.452;2023-01-15T01:55:49;86581.28;;;17.44;45.57
65019;BME280;66069;51.164;-114.452;2023-01-15T01:58:17;86559.13;;;17.29;45.48
65019;BME280;66069;51.164;-114.452;2023-01-15T02:00:46;86580.78;;;17.36;45.45
65019;BME280;66069;51.164;-114.452;2023-01-15T02:03:13;86536.50;;;17.15;45.41
65019;BME280;66069;51.164;-114.452;2023-01-15T02:05:46;86547.41;;;17.17;45.47
65019;BME280;66069;51.164;-114.452;2023-01-15T02:08:14;86517.75;;;16.87;45.40
65019;BME280;66069;51.164;-114.452;2023-01-15T02:10:40;86485.94;;;16.78;45.29
65019;BME280;66069;51.164;-114.452;2023-01-15T02:13:42;86573.88;;;17.39;45.23
65019;BME280;66069;51.164;-114.452;2023-01-15T02:16:12;86573.59;;;17.37;45.27
65019;BME280;66069;51.164;-114.452;2023-01-15T02:24:11;86573.28;;;17.35;45.16
65019;BME280;66069;51.164;-114.452;2023-01-15T02:29:22;86544.03;;;17.16;45.17
65019;BME280;66069;51.164;-114.452;2023-01-15T02:31:52;86545.59;;;17.14;45.04
65019;BME280;66069;51.164;-114.452;2023-01-15T02:34:23;86568.44;;;17.33;45.13
65019;BME280;66069;51.164;-114.452;2023-01-15T02:37:00;86554.19;;;17.18;45.22
65019;BME280;66069;51.164;-114.452;2023-01-15T02:39:28;86574.47;;;17.34;45.39
65019;BME280;66069;51.164;-114.452;2023-01-15T02:41:59;86532.19;;;17.08;45.72
65019;BME280;66069;51.164;-114.452;2023-01-15T02:44:28;86576.97;;;17.37;45.74
65019;BME280;66069;51.164;-114.452;2023-01-15T02:46:57;86576.38;;;17.33;45.53
65019;BME280;66069;51.164;-114.452;2023-01-15T02:49:24;86580.38;;;17.38;45.89
65019;BME280;66069;51.164;-114.452;2023-01-15T02:52:00;86545.94;;;17.16;45.55
65019;BME280;66069;51.164;-114.452;2023-01-15T02:54:33;86570.63;;;17.35;45.67
65019;BME280;66069;51.164;-114.452;2023-01-15T02:57:02;86555.72;;;17.28;45.90
65019;BME280;66069;51.164;-114.452;2023-01-15T02:59:35;86560.59;;;17.30;46.23
65019;BME280;66069;51.164;-114.452;2023-01-15T03:02:05;86565.78;;;17.33;46.10
65019;BME280;66069;51.164;-114.452;2023-01-15T03:04:49;86581.28;;;17.44;46.10
65019;BME280;66069;51.164;-114.452;2023-01-15T03:07:24;86568.28;;;17.37;46.05
65019;BME280;66069;51.164;-114.452;2023-01-15T03:09:54;86565.19;;;17.38;46.06
65019;BME280;66069;51.164;-114.452;2023-01-15T03:15:24;86559.84;;;17.29;45.96
65019;BME280;66069;51.164;-114.452;2023-01-15T03:18:15;86569.03;;;17.37;46.02
65019;BME280;66069;51.164;-114.452;2023-01-15T03:20:50;86567.84;;;17.38;46.55
65019;BME280;66069;51.164;-114.452;2023-01-15T03:23:18;86564.66;;;17.43;46.37
65019;BME280;66069;51.164;-114.452;2023-01-15T03:25:50;86569.28;;;17.52;46.42
65019;BME280;66069;51.164;-114.452;2023-01-15T03:28:25;86568.56;;;17.52;46.41
65019;BME280;66069;51.164;-114.452;2023-01-15T03:30:53;86576.06;;;17.53;46.17
65019;BME280;66069;51.164;-114.452;2023-01-15T03:33:20;86539.69;;;17.32;46.26
65019;BME280;66069;51.164;-114.452;2023-01-15T03:35:50;86572.69;;;17.53;46.22
65019;BME280;66069;51.164;-114.452;2023-01-15T03:38:34;86570.03;;;17.53;46.11
65019;BME280;66069;51.164;-114.452;2023-01-15T03:50:04;86561.56;;;17.45;46.81
65019;BME280;66069;51.164;-114.452;2023-01-15T03:57:50;86575.06;;;17.60;46.38
65019;BME280;66069;51.164;-114.452;2023-01-15T04:00:20;86574.63;;;17.61;46.41
65019;BME280;66069;51.164;-114.452;2023-01-15T04:02:50;86574.63;;;17.61;46.29
65019;BME280;66069;51.164;-114.452;2023-01-15T04:05:18;86564.00;;;17.52;46.30
65019;BME280;66069;51.164;-114.452;2023-01-15T04:07:46;86573.91;;;17.61;46.22
65019;BME280;66069;51.164;-114.452;2023-01-15T04:10:13;86571.25;;;17.61;46.11
65019;BME280;66069;51.164;-114.452;2023-01-15T04:12:39;86522.78;;;17.29;46.35
65019;BME280;66069;51.164;-114.452;2023-01-15T04:15:06;86550.41;;;17.50;46.14
65019;BME280;66069;51.164;-114.452;2023-01-15T04:17:33;86552.78;;;17.48;46.02
65019;BME280;66069;51.164;-114.452;2023-01-15T04:19:59;86563.66;;;17.50;46.12
65019;BME280;66069;51.164;-114.452;2023-01-15T04:22:26;86562.63;;;17.47;46.42
65019;BME280;66069;51.164;-114.452;2023-01-15T04:24:52;86480.16;;;16.92;46.51
65019;BME280;66069;51.164;-114.452;2023-01-15T04:27:20;86563.56;;;17.54;46.74
65019;BME280;66069;51.164;-114.452;2023-01-15T04:29:46;86535.31;;;17.38;46.66
65019;BME280;66069;51.164;-114.452;2023-01-15T04:32:13;86543.47;;;17.43;46.57
65019;BME280;66069;51.164;-114.452;2023-01-15T04:34:42;86558.25;;;17.54;46.32
65019;BME280;66069;51.164;-114.452;2023-01-15T04:37:09;86552.47;;;17.46;46.32
65019;BME280;66069;51.164;-114.452;2023-01-15T04:39:35;86570.81;;;17.62;46.36
65019;BME280;66069;51.164;-114.452;2023-01-15T04:42:02;86580.13;;;17.67;46.30
65019;BME280;66069;51.164;-114.452;2023-01-15T04:44:46;86578.94;;;17.68;46.26
65019;BME280;66069;51.164;-114.452;2023-01-15T04:47:13;86553.50;;;17.48;46.30
65019;BME280;66069;51.164;-114.452;2023-01-15T04:49:40;86580.84;;;17.67;46.07
65019;BME280;66069;51.164;-114.452;2023-01-15T04:52:06;86543.47;;;17.43;46.20
65019;BME280;66069;51.164;-114.452;2023-01-15T04:54:33;86551.16;;;17.50;46.14
65019;BME280;66069;51.164;-114.452;2023-01-15T04:56:59;86548.81;;;17.53;46.02
65019;BME280;66069;51.164;-114.452;2023-01-15T04:59:26;86550.41;;;17.50;45.89
65019;BME280;66069;51.164;-114.452;2023-01-15T05:01:53;86571.13;;;17.64;46.04
65019;BME280;66069;51.164;-114.452;2023-01-15T05:04:20;86570.06;;;17.62;46.09
65019;BME280;66069;51.164;-114.452;2023-01-15T05:06:46;86569.22;;;17.65;46.09
65019;BME280;66069;51.164;-114.452;2023-01-15T05:09:13;86561.69;;;17.63;45.93
65019;BME280;66069;51.164;-114.452;2023-01-15T05:11:39;86551.28;;;17.47;46.07
65019;BME280;66069;51.164;-114.452;2023-01-15T05:14:09;86570.81;;;17.62;45.91
65019;BME280;66069;51.164;-114.452;2023-01-15T05:16:35;86563.41;;;17.57;45.99
65019;BME280;66069;51.164;-114.452;2023-01-15T05:19:04;86569.34;;;17.61;45.98
65019;BME280;66069;51.164;-114.452;2023-01-15T05:21:35;86557.06;;;17.55;45.84
65019;BME280;66069;51.164;-114.452;2023-01-15T05:24:04;86577.72;;;17.60;45.93
65019;BME280;66069;51.164;-114.452;2023-01-15T05:26:32;86584.94;;;17.59;45.96
65019;BME280;66069;51.164;-114.452;2023-01-15T05:28:59;86577.00;;;17.59;45.69
65019;BME280;66069;51.164;-114.452;2023-01-15T05:31:27;86571.81;;;17.56;45.83
65019;BME280;66069;51.164;-114.452;2023-01-15T05:33:55;86552.88;;;17.44;45.76
65019;BME280;66069;51.164;-114.452;2023-01-15T05:36:24;86551.09;;;17.41;45.83
65019;BME280;66069;51.164;-114.452;2023-01-15T05:38:53;86544.88;;;17.35;45.56
65019;BME280;66069;51.164;-114.452;2023-01-15T05:41:21;86569.69;;;17.50;45.84
65019;BME280;66069;51.164;-114.452;2023-01-15T05:44:10;86561.56;;;17.45;45.69
65019;BME280;66069;51.164;-114.452;2023-01-15T05:46:39;86575.31;;;17.53;45.77
65019;BME280;66069;51.164;-114.452;2023-01-15T05:49:08;86564.09;;;17.48;45.81
65019;BME280;66069;51.164;-114.452;2023-01-15T05:51:35;86565.81;;;17.42;45.82
65019;BME280;66069;51.164;-114.452;2023-01-15T05:54:04;86558.91;;;17.45;45.73
65019;BME280;66069;51.164;-114.452;2023-01-15T05:56:33;86562.19;;;17.49;45.81
65019;BME280;66069;51.164;-114.452;2023-01-15T05:58:59;86538.38;;;17.27;45.87
65019;BME280;66069;51.164;-114.452;2023-01-15T06:01:26;86553.03;;;17.41;45.79
65019;BME280;66069;51.164;-114.452;2023-01-15T06:03:52;86519.56;;;17.12;45.95
65019;BME280;66069;51.164;-114.452;2023-01-15T06:06:20;86550.28;;;17.32;45.68
65019;BME280;66069;51.164;-114.452;2023-01-15T06:08:47;86569.50;;;17.45;45.61
65019;BME280;66069;51.164;-114.452;2023-01-15T06:11:13;86558.75;;;17.39;45.60
65019;BME280;66069;51.164;-114.452;2023-01-15T06:13:39;86552.69;;;17.39;45.67
65019;BME280;66069;51.164;-114.452;2023-01-15T06:16:07;86560.53;;;17.42;45.68
65019;BME280;66069;51.164;-114.452;2023-01-15T06:18:36;86541.84;;;17.24;45.61
65019;BME280;66069;51.164;-114.452;2023-01-15T06:21:04;86559.50;;;17.40;45.78
65019;BME280;66069;51.164;-114.452;2023-01-15T06:23:32;86559.91;;;17.38;45.52
65019;BME280;66069;51.164;-114.452;2023-01-15T06:26:10;86558.44;;;17.37;45.70
65019;BME280;66069;51.164;-114.452;2023-01-15T06:28:37;86534.34;;;17.22;45.59
65019;BME280;66069;51.164;-114.452;2023-01-15T06:31:05;86510.38;;;17.04;45.54
65019;BME280;66069;51.164;-114.452;2023-01-15T06:33:31;86529.16;;;17.19;45.42
65019;BME280;66069;51.164;-114.452;2023-01-15T06:36:01;86547.47;;;17.26;45.67
65019;BME280;66069;51.164;-114.452;2023-01-15T06:38:27;86547.78;;;17.28;45.48
65019;BME280;66069;51.164;-114.452;2023-01-15T06:40:54;86525.03;;;17.18;45.50
65019;BME280;66069;51.164;-114.452;2023-01-15T06:43:22;86516.16;;;17.12;45.37
65019;BME280;66069;51.164;-114.452;2023-01-15T06:46:08;86520.19;;;17.16;45.54
65019;BME280;66069;51.164;-114.452;2023-01-15T06:48:53;86512.06;;;17.11;45.54
65019;BME280;66069;51.164;-114.452;2023-01-15T06:51:20;86539.50;;;17.26;45.43
65019;BME280;66069;51.164;-114.452;2023-01-15T06:53:46;86535.09;;;17.23;45.49
65019;BME280;66069;51.164;-114.452;2023-01-15T06:56:14;86530.53;;;17.23;45.48
65019;BME280;66069;51.164;-114.452;2023-01-15T06:58:43;86513.09;;;17.13;45.25
65019;BME280;66069;51.164;-114.452;2023-01-15T07:01:12;86521.53;;;17.21;45.46
65019;BME280;66069;51.164;-114.452;2023-01-15T07:03:39;86516.34;;;17.17;45.39
65019;BME280;66069;51.164;-114.452;2023-01-15T07:06:07;86484.75;;;17.01;45.46
65019;BME280;66069;51.164;-114.452;2023-01-15T07:08:34;86504.09;;;17.11;45.46
65019;BME280;66069;51.164;-114.452;2023-01-15T07:11:06;86511.06;;;17.17;45.37
65019;BME280;66069;51.164;-114.452;2023-01-15T07:13:32;86520.91;;;17.17;45.50
65019;BME280;66069;51.164;-114.452;2023-01-15T07:16:01;86506.22;;;17.16;45.41
65019;BME280;66069;51.164;-114.452;2023-01-15T07:18:31;86502.94;;;17.12;45.33
65019;BME280;66069;51.164;-114.452;2023-01-15T07:20:58;86507.78;;;17.13;45.37
65019;BME280;66069;51.164;-114.452;2023-01-15T07:23:25;86508.22;;;17.12;45.33
65019;BME280;66069;51.164;-114.452;2023-01-15T07:25:53;86499.78;;;17.04;45.49
65019;BME280;66069;51.164;-114.452;2023-01-15T07:28:21;86490.63;;;16.96;45.50
65019;BME280;66069;51.164;-114.452;2023-01-15T07:30:48;86508.38;;;17.08;45.27
65019;BME280;66069;51.164;-114.452;2023-01-15T07:33:14;86502.31;;;17.08;45.49
65019;BME280;66069;51.164;-114.452;2023-01-15T07:35:41;86486.31;;;16.89;45.12
65019;BME280;66069;51.164;-114.452;2023-01-15T07:38:07;86517.88;;;17.06;45.33
65019;BME280;66069;51.164;-114.452;2023-01-15T07:40:33;86513.78;;;17.05;45.26
65019;BME280;66069;51.164;-114.452;2023-01-15T07:43:00;86504.47;;;17.00;45.22
65019;BME280;66069;51.164;-114.452;2023-01-15T07:45:44;86473.25;;;16.73;45.28
65019;BME280;66069;51.164;-114.452;2023-01-15T07:48:29;86486.53;;;16.82;45.23
65019;BME280;66069;51.164;-114.452;2023-01-15T07:51:13;86503.88;;;16.96;45.24
65019;BME280;66069;51.164;-114.452;2023-01-15T07:53:40;86461.06;;;16.63;45.29
65019;BME280;66069;51.164;-114.452;2023-01-15T07:56:07;86507.78;;;16.91;45.27
65019;BME280;66069;51.164;-114.452;2023-01-15T07:58:33;86508.22;;;16.90;45.18
65019;BME280;66069;51.164;-114.452;2023-01-15T08:01:00;86506.88;;;16.85;45.18
65019;BME280;66069;51.164;-114.452;2023-01-15T08:03:26;86508.84;;;16.94;45.17
65019;BME280;66069;51.164;-114.452;2023-01-15T08:05:52;86473.75;;;16.68;45.29
65019;BME280;66069;51.164;-114.452;2023-01-15T08:08:19;86495.66;;;16.81;45.08
65019;BME280;66069;51.164;-114.452;2023-01-15T08:10:45;86494.16;;;16.80;45.25
65019;BME280;66069;51.164;-114.452;2023-01-15T08:13:30;86501.44;;;16.89;45.20
65019;BME280;66069;51.164;-114.452;2023-01-15T08:16:14;86505.38;;;16.84;45.06
65019;BME280;66069;51.164;-114.452;2023-01-15T08:18:41;86469.19;;;16.68;45.15
65019;BME280;66069;51.164;-114.452;2023-01-15T08:21:13;86468.16;;;16.66;45.23
65019;BME280;66069;51.164;-114.452;2023-01-15T08:23:40;86449.69;;;16.53;45.38
65019;BME280;66069;51.164;-114.452;2023-01-15T08:26:08;86453.91;;;16.51;45.11
65019;BME280;66069;51.164;-114.452;2023-01-15T08:28:34;86450.00;;;16.55;45.06
65019;BME280;66069;51.164;-114.452;2023-01-15T08:31:00;86471.84;;;16.68;44.94
65019;BME280;66069;51.164;-114.452;2023-01-15T08:33:27;86488.69;;;16.75;45.15
65019;BME280;66069;51.164;-114.452;2023-01-15T08:35:53;86469.75;;;16.63;45.12
65019;BME280;66069;51.164;-114.452;2023-01-15T08:38:22;86483.59;;;16.67;45.07
65019;BME280;66069;51.164;-114.452;2023-01-15T08:40:52;86469.16;;;16.59;44.88
65019;BME280;66069;51.164;-114.452;2023-01-15T08:43:30;86502.97;;;16.77;45.25
65019;BME280;66069;51.164;-114.452;2023-01-15T08:45:58;86509.84;;;16.75;44.97
65019;BME280;66069;51.164;-114.452;2023-01-15T08:48:26;86505.50;;;16.68;44.95
65019;BME280;66069;51.164;-114.452;2023-01-15T08:50:52;86511.75;;;16.74;44.93
65019;BME280;66069;51.164;-114.452;2023-01-15T08:53:19;86493.69;;;16.60;44.98
65019;BME280;66069;51.164;-114.452;2023-01-15T08:55:47;86512.63;;;16.71;45.14
65019;BME280;66069;51.164;-114.452;2023-01-15T08:58:14;86517.16;;;16.71;44.99
65019;BME280;66069;51.164;-114.452;2023-01-15T09:00:42;86500.56;;;16.57;45.12
65019;BME280;66069;51.164;-114.452;2023-01-15T09:03:08;86494.34;;;16.51;44.89
65019;BME280;66069;51.164;-114.452;2023-01-15T09:05:36;86513.88;;;16.66;45.02
65019;BME280;66069;51.164;-114.452;2023-01-15T09:08:06;86510.50;;;16.66;44.93
65019;BME280;66069;51.164;-114.452;2023-01-15T09:10:33;86499.84;;;16.44;45.11
65019;BME280;66069;51.164;-114.452;2023-01-15T09:13:03;86527.97;;;16.63;45.11
65019;BME280;66069;51.164;-114.452;2023-01-15T09:15:31;86491.09;;;16.47;44.96
65019;BME280;66069;51.164;-114.452;2023-01-15T09:17:58;86509.81;;;16.53;45.10
65019;BME280;66069;51.164;-114.452;2023-01-15T09:20:25;86498.38;;;16.43;45.05
65019;BME280;66069;51.164;-114.452;2023-01-15T09:22:52;86528.09;;;16.60;44.88
65019;BME280;66069;51.164;-114.452;2023-01-15T09:25:18;86528.53;;;16.58;44.89
65019;BME280;66069;51.164;-114.452;2023-01-15T09:27:48;86529.66;;;16.57;44.92
65019;BME280;66069;51.164;-114.452;2023-01-15T09:30:21;86502.00;;;16.36;44.98
65019;BME280;66069;51.164;-114.452;2023-01-15T09:32:48;86503.16;;;16.35;44.84
65019;BME280;66069;51.164;-114.452;2023-01-15T09:35:14;86507.00;;;16.34;45.01
65019;BME280;66069;51.164;-114.452;2023-01-15T09:37:41;86533.63;;;16.53;44.98
65019;BME280;66069;51.164;-114.452;2023-01-15T09:40:16;86526.00;;;16.42;44.81
65019;BME280;66069;51.164;-114.452;2023-01-15T09:42:51;86533.28;;;16.51;45.03
65019;BME280;66069;51.164;-114.452;2023-01-15T09:45:25;86524.00;;;16.46;44.92
65019;BME280;66069;51.164;-114.452;2023-01-15T09:48:05;86533.72;;;16.49;44.90
65019;BME280;66069;51.164;-114.452;2023-01-15T09:53:29;86536.06;;;16.47;45.05
65019;BME280;66069;51.164;-114.452;2023-01-15T09:56:01;86495.69;;;16.21;44.83
65019;BME280;66069;51.164;-114.452;2023-01-15T09:58:35;86535.00;;;16.45;44.90
65019;BME280;66069;51.164;-114.452;2023-01-15T10:01:03;86503.50;;;16.25;44.94
65019;BME280;66069;51.164;-114.452;2023-01-15T10:03:46;86533.94;;;16.42;44.92
65019;BME280;66069;51.164;-114.452;2023-01-15T10:08:45;86523.16;;;16.36;44.79
65019;BME280;66069;51.164;-114.452;2023-01-15T10:13:50;86522.00;;;16.37;44.72
65019;BME280;66069;51.164;-114.452;2023-01-15T10:16:21;86526.53;;;16.37;44.97
65019;BME280;66069;51.164;-114.452;2023-01-15T10:18:49;86521.06;;;16.31;44.89
65019;BME280;66069;51.164;-114.452;2023-01-15T10:21:39;86521.34;;;16.33;44.92
65019;BME280;66069;51.164;-114.452;2023-01-15T10:24:18;86524.00;;;16.33;44.83
65019;BME280;66069;51.164;-114.452;2023-01-15T10:26:56;86519.13;;;16.32;44.86
65019;BME280;66069;51.164;-114.452;2023-01-15T10:31:51;86518.84;;;16.30;44.94
65019;BME280;66069;51.164;-114.452;2023-01-15T10:42:54;86499.72;;;16.13;44.75
65019;BME280;66069;51.164;-114.452;2023-01-15T10:45:27;86506.59;;;16.10;44.80
65019;BME280;66069;51.164;-114.452;2023-01-15T10:48:12;86495.91;;;16.01;44.76
65019;BME280;66069;51.164;-114.452;2023-01-15T10:50:40;86515.56;;;16.13;44.91
65019;BME280;66069;51.164;-114.452;2023-01-15T10:53:28;86529.31;;;16.21;44.85
65019;BME280;66069;51.164;-114.452;2023-01-15T10:56:10;86509.47;;;16.03;44.72
65019;BME280;66069;51.164;-114.452;2023-01-15T10:59:45;86497.22;;;15.97;44.89
65019;BME280;66069;51.164;-114.452;2023-01-15T11:01:38;86522.97;;;16.18;44.92
65019;BME280;66069;51.164;-114.452;2023-01-15T11:04:10;86530.59;;;16.16;44.89
65019;BME280;66069;51.164;-114.452;2023-01-15T11:06:38;86527.22;;;16.15;44.90
65019;BME280;66069;51.164;-114.452;2023-01-15T11:09:05;86518.88;;;16.04;44.93
65019;BME280;66069;51.164;-114.452;2023-01-15T11:11:48;86507.97;;;16.02;44.73
65019;BME280;66069;51.164;-114.452;2023-01-15T11:14:41;86520.25;;;16.09;44.97
65019;BME280;66069;51.164;-114.452;2023-01-15T11:22:43;86513.38;;;15.99;44.82
65019;BME280;66069;51.164;-114.452;2023-01-15T11:25:10;86503.31;;;15.94;44.70
65019;BME280;66069;51.164;-114.452;2023-01-15T11:27:36;86491.06;;;15.87;44.95
65019;BME280;66069;51.164;-114.452;2023-01-15T11:30:05;86510.59;;;16.02;44.96
65019;BME280;66069;51.164;-114.452;2023-01-15T11:32:37;86493.63;;;15.91;44.75
65019;BME280;66069;51.164;-114.452;2023-01-15T11:35:16;86517.41;;;16.03;44.82
65019;BME280;66069;51.164;-114.452;2023-01-15T11:37:43;86508.91;;;15.96;44.75
65019;BME280;66069;51.164;-114.452;2023-01-15T11:40:17;86500.81;;;15.90;44.78
65019;BME280;66069;51.164;-114.452;2023-01-15T11:42:46;86511.03;;;16.01;44.75
65019;BME280;66069;51.164;-114.452;2023-01-15T11:45:31;86494.88;;;15.86;44.99
65019;BME280;66069;51.164;-114.452;2023-01-15T11:48:19;86488.94;;;15.82;44.72
65019;BME280;66069;51.164;-114.452;2023-01-15T11:51:09;86503.75;;;15.92;44.71
65019;BME280;66069;51.164;-114.452;2023-01-15T11:53:44;86509.69;;;15.96;44.84
65019;BME280;66069;51.164;-114.452;2023-01-15T11:56:23;86509.47;;;15.91;44.85
65019;BME280;66069;51.164;-114.452;2023-01-15T11:58:54;86479.13;;;15.70;44.70
65019;BME280;66069;51.164;-114.452;2023-01-15T12:01:27;86517.72;;;15.93;44.69
65019;BME280;66069;51.164;-114.452;2023-01-15T12:03:59;86512.94;;;15.87;44.67
65019;BME280;66069;51.164;-114.452;2023-01-15T12:06:27;86512.13;;;15.91;44.64
65019;BME280;66069;51.164;-114.452;2023-01-15T12:09:14;86460.94;;;15.59;44.82
65019;BME280;66069;51.164;-114.452;2023-01-15T12:28:28;86473.63;;;15.64;44.87
65019;BME280;66069;51.164;-114.452;2023-01-15T12:36:12;86470.59;;;15.66;44.82
65019;BME280;66069;51.164;-114.452;2023-01-15T12:41:15;86473.22;;;15.66;44.71
65019;BME280;66069;51.164;-114.452;2023-01-15T12:43:46;86485.47;;;15.72;44.86
65019;BME280;66069;51.164;-114.452;2023-01-15T12:46:33;86463.16;;;15.60;44.70
65019;BME280;66069;51.164;-114.452;2023-01-15T12:49:51;86484.09;;;15.68;44.90
65019;BME280;66069;51.164;-114.452;2023-01-15T12:52:10;86464.31;;;15.59;44.88
65019;BME280;66069;51.164;-114.452;2023-01-15T12:55:12;86488.13;;;15.72;44.75
65019;BME280;66069;51.164;-114.452;2023-01-15T12:57:39;86489.69;;;15.70;44.80
65019;BME280;66069;51.164;-114.452;2023-01-15T13:00:14;86478.19;;;15.64;44.71
65019;BME280;66069;51.164;-114.452;2023-01-15T13:05:54;86440.00;;;15.39;44.71
65019;BME280;66069;51.164;-114.452;2023-01-15T13:10:56;86483.16;;;15.74;45.48
65019;BME280;66069;51.164;-114.452;2023-01-15T13:13:31;86468.88;;;15.72;45.84
65019;BME280;66069;51.164;-114.452;2023-01-15T13:21:57;86452.91;;;15.75;47.11
65019;BME280;66069;51.164;-114.452;2023-01-15T13:27:01;86487.03;;;16.08;47.48
65019;BME280;66069;51.164;-114.452;2023-01-15T13:29:34;86494.00;;;16.14;47.87
65019;BME280;66069;51.164;-114.452;2023-01-15T13:32:14;86475.06;;;16.16;48.08
65019;BME280;66069;51.164;-114.452;2023-01-15T13:34:48;86452.78;;;16.04;48.28
65019;BME280;66069;51.164;-114.452;2023-01-15T13:40:00;86477.03;;;16.37;48.63
65019;BME280;66069;51.164;-114.452;2023-01-15T13:42:28;86477.97;;;16.43;48.73
65019;BME280;66069;51.164;-114.452;2023-01-15T13:48:06;86439.25;;;16.37;48.95
65019;BME280;66069;51.164;-114.452;2023-01-15T13:50:35;86466.06;;;16.61;48.51
65019;BME280;66069;51.164;-114.452;2023-01-15T13:56:08;86459.50;;;16.65;48.85
65019;BME280;66069;51.164;-114.452;2023-01-15T13:58:39;86460.63;;;16.77;48.73
65019;BME280;66069;51.164;-114.452;2023-01-15T14:04:07;86455.41;;;16.86;48.82
65019;BME280;66069;51.164;-114.452;2023-01-15T14:06:51;86460.59;;;16.90;48.52
65019;BME280;66069;51.164;-114.452;2023-01-15T14:18:01;86468.06;;;17.13;48.69
65019;BME280;66069;51.164;-114.452;2023-01-15T14:20:59;86450.09;;;17.08;48.45
65019;BME280;66069;51.164;-114.452;2023-01-15T14:23:43;86406.94;;;16.77;47.99
65019;BME280;66069;51.164;-114.452;2023-01-15T14:26:40;86460.81;;;17.27;48.10
65019;BME280;66069;51.164;-114.452;2023-01-15T14:34:32;86433.41;;;17.20;48.13
65019;BME280;66069;51.164;-114.452;2023-01-15T14:37:00;86461.31;;;17.43;47.94
65019;BME280;66069;51.164;-114.452;2023-01-15T14:39:52;86471.06;;;17.46;47.94
65019;BME280;66069;51.164;-114.452;2023-01-15T14:42:27;86447.72;;;17.32;47.81
65019;BME280;66069;51.164;-114.452;2023-01-15T14:45:25;86464.31;;;17.55;47.94
65019;BME280;66069;51.164;-114.452;2023-01-15T14:47:54;86444.25;;;17.44;47.73